createdAt,value
2022-12-11T00:05:24.251Z,13.60
2022-12-11T00:15:27.321Z,13.20
2022-12-11T00:25:31.745Z,14.53
2022-12-11T00:35:34.827Z,15.17
2022-12-11T00:45:40.248Z,13.23
2022-12-11T00:55:44.179Z,14.33
2022-12-11T01:05:55.462Z,13.37
2022-12-11T01:15:58.451Z,12.70
2022-12-11T01:26:08.406Z,12.37
2022-12-11T01:36:13.958Z,12.80
2022-12-11T01:46:18.465Z,12.70
2022-12-11T01:56:21.710Z,12.40
2022-12-11T02:06:38.276Z,11.47
2022-12-11T02:16:47.739Z,11.10
2022-12-11T02:27:15.018Z,10.10
2022-12-11T02:37:23.146Z,9.57
2022-12-11T02:47:28.992Z,10.57
2022-12-11T02:57:39.735Z,9.20
2022-12-11T03:07:45.370Z,9.17
2022-12-11T03:18:02.622Z,9.33
2022-12-11T03:28:12.325Z,8.97
2022-12-11T03:38:22.090Z,8.60
2022-12-11T03:48:28.279Z,7.80
2022-12-11T03:58:32.868Z,8.57
2022-12-11T04:08:36.003Z,9.67
2022-12-11T04:18:57.717Z,8.93
2022-12-11T04:29:00.751Z,10.43
2022-12-11T04:39:06.305Z,9.57
2022-12-11T04:49:10.027Z,9.70
2022-12-11T04:59:14.844Z,7.97
2022-12-11T05:09:18.007Z,8.33
2022-12-11T05:19:22.409Z,8.57
2022-12-11T05:29:25.449Z,7.93
2022-12-11T05:39:29.837Z,7.67
2022-12-11T05:49:32.869Z,8.87
2022-12-11T05:59:37.259Z,8.63
2022-12-11T06:09:40.345Z,8.17
2022-12-11T06:19:44.778Z,8.10
2022-12-11T06:29:48.107Z,8.60
2022-12-11T06:39:52.543Z,7.77
2022-12-11T06:49:56.783Z,7.60
2022-12-11T07:00:01.299Z,8.27
2022-12-11T07:10:08.256Z,7.93
2022-12-11T07:20:13.582Z,8.00
2022-12-11T07:30:16.761Z,8.30
2022-12-11T07:40:21.180Z,8.37
2022-12-11T07:50:24.269Z,7.90
2022-12-11T08:00:28.723Z,8.57
2022-12-11T08:10:31.804Z,8.83
2022-12-11T08:20:38.367Z,9.03
2022-12-11T08:30:41.950Z,8.57
2022-12-11T08:40:46.375Z,7.73
2022-12-11T08:50:49.472Z,9.10
2022-12-11T09:00:53.926Z,8.90
2022-12-11T09:10:57.120Z,8.70
2022-12-11T09:21:04.402Z,10.07
2022-12-11T09:31:10.805Z,9.70
2022-12-11T09:41:39.807Z,8.97
2022-12-11T09:51:48.259Z,10.27
2022-12-11T10:02:01.596Z,10.47
2022-12-11T10:12:16.024Z,9.70
2022-12-11T10:22:23.081Z,9.87
2022-12-11T10:32:32.094Z,10.80
2022-12-11T10:42:41.204Z,11.17
2022-12-11T10:52:47.192Z,11.57
2022-12-11T11:02:51.771Z,11.20
2022-12-11T11:13:02.037Z,11.43
2022-12-11T11:23:14.834Z,12.53
2022-12-11T11:33:21.876Z,12.00
2022-12-11T11:43:36.982Z,12.43
2022-12-11T11:53:41.740Z,12.70
2022-12-11T12:03:48.059Z,12.93
2022-12-11T12:14:00.351Z,13.13
2022-12-11T12:24:16.155Z,13.30
2022-12-11T12:34:31.708Z,12.40
2022-12-11T12:44:43.479Z,12.87
2022-12-11T12:55:03.788Z,12.90
2022-12-11T13:05:22.121Z,13.20
2022-12-11T13:15:39.011Z,14.13
2022-12-11T13:25:55.351Z,13.10
2022-12-11T13:36:26.887Z,13.07
2022-12-11T13:46:35.789Z,13.37
2022-12-11T13:56:38.873Z,13.63
2022-12-11T14:06:43.527Z,13.47
2022-12-11T14:16:49.263Z,14.30
2022-12-11T14:26:54.944Z,13.67
2022-12-11T14:36:58.919Z,14.77
2022-12-11T14:47:06.040Z,14.33
2022-12-11T14:57:14.279Z,14.63
2022-12-11T15:07:22.209Z,15.13
2022-12-11T15:17:26.489Z,15.37
2022-12-11T15:27:36.814Z,15.70
2022-12-11T15:37:40.147Z,15.60
2022-12-11T15:47:45.615Z,16.23
2022-12-11T15:57:51.554Z,17.77
2022-12-11T16:07:59.472Z,15.17
2022-12-11T16:18:04.778Z,15.30
2022-12-11T16:28:10.344Z,14.87
2022-12-11T16:38:16.585Z,16.47
2022-12-11T16:48:21.007Z,17.30
2022-12-11T16:58:24.078Z,18.27
2022-12-11T17:08:28.624Z,15.90
2022-12-11T17:18:31.670Z,17.97
2022-12-11T17:28:36.955Z,16.23
2022-12-11T17:38:40.113Z,17.13
2022-12-11T17:48:44.766Z,17.07
2022-12-11T17:58:47.863Z,18.10
2022-12-11T18:08:52.320Z,16.53
2022-12-11T18:18:56.411Z,18.53
2022-12-11T18:29:01.121Z,19.87
2022-12-11T18:39:04.430Z,19.63
2022-12-11T18:49:08.895Z,19.50
2022-12-11T18:59:13.493Z,22.10
2022-12-11T19:09:18.332Z,20.13
2022-12-11T19:19:22.774Z,19.70
2022-12-11T19:29:32.250Z,22.10
2022-12-11T19:39:35.942Z,21.77
2022-12-11T19:49:40.418Z,22.03
2022-12-11T19:59:43.490Z,20.43
2022-12-11T20:09:47.941Z,24.13
2022-12-11T20:19:50.960Z,21.70
2022-12-11T20:29:55.340Z,22.27
2022-12-11T20:39:58.375Z,22.57
2022-12-11T20:50:02.949Z,20.00
2022-12-11T21:00:06.778Z,19.13
2022-12-11T21:10:11.466Z,20.23
2022-12-11T21:20:14.495Z,19.10
2022-12-11T21:30:19.115Z,30.60
2022-12-11T21:40:23.483Z,23.60
2022-12-11T21:50:27.892Z,19.77
2022-12-11T22:00:30.992Z,19.17
2022-12-11T22:10:35.476Z,18.27
2022-12-11T22:20:38.493Z,20.83
2022-12-11T22:30:43.459Z,19.70
2022-12-11T22:40:46.554Z,19.00
2022-12-11T22:50:50.950Z,18.47
2022-12-11T23:00:54.004Z,20.77
2022-12-11T23:10:58.477Z,20.60
2022-12-11T23:21:01.527Z,20.30
2022-12-11T23:31:06.455Z,19.70
2022-12-11T23:41:12.715Z,19.17
2022-12-11T23:51:19.411Z,17.70
